Time;durP1;ratioP1;P1;durP2;ratioP2;P2;SDS_P1;SDS_P2;PMS_P1;PMS_P2;Temp;Humidity;BMP_temperature;BMP_pressure;BME280_temperature;BME280_humidity;BME280_pressure;Samples;Min_cycle;Max_cycle;Signal;HPM_P1;HPM_P2
2022/03/04 00:00:43;;;;;;;33.70;23.55;;;;;;;4.73;50.37;102111.13;5172765;28;20431;-49
2022/03/04 00:03:16;;;;;;;31.65;24.08;;;;;;;4.62;50.26;102097.78;5176072;28;20430;-49
2022/03/04 00:05:50;;;;;;;34.25;23.90;;;;;;;4.65;50.39;102123.78;5172757;28;20834;-52
2022/03/04 00:08:22;;;;;;;36.70;25.60;;;;;;;4.57;50.59;102111.09;5174102;28;20877;-49
2022/03/04 00:10:55;;;;;;;32.47;24.05;;;;;;;4.58;50.40;102118.03;5174303;28;20754;-52
2022/03/04 00:13:27;;;;;;;37.30;25.35;;;;;;;4.53;50.52;102124.41;5173194;28;20429;-47
2022/03/04 00:16:00;;;;;;;35.83;24.30;;;;;;;4.16;50.63;102069.59;5167545;28;20467;-52
2022/03/04 00:18:36;;;;;;;34.05;24.33;;;;;;;4.50;50.64;102133.25;5171133;28;20439;-50
2022/03/04 00:21:10;;;;;;;34.17;24.23;;;;;;;4.46;50.69;102131.75;5172505;28;20511;-46
2022/03/04 00:23:42;;;;;;;36.00;24.67;;;;;;;4.42;50.91;102127.56;5168796;28;20519;-56
2022/03/04 00:26:15;;;;;;;34.72;25.42;;;;;;;4.41;50.91;102136.34;5173395;28;20426;-50
2022/03/04 00:28:47;;;;;;;36.45;25.35;;;;;;;4.35;50.82;102134.03;5165878;28;20445;-51
2022/03/04 00:31:20;;;;;;;34.40;24.83;;;;;;;4.29;50.82;102136.97;5172193;28;20594;-48
2022/03/04 00:33:52;;;;;;;37.60;25.77;;;;;;;4.10;51.40;102109.13;5169236;28;20448;-56
2022/03/04 00:36:27;;;;;;;35.38;24.58;;;;;;;4.23;51.11;102132.03;5166835;28;20415;-50
2022/03/04 00:38:59;;;;;;;37.90;26.65;;;;;;;3.98;51.58;102107.13;5170651;28;20426;-50
2022/03/04 00:41:32;;;;;;;33.90;26.15;;;;;;;4.14;51.43;102128.97;5173028;28;20433;-55
2022/03/04 00:44:06;;;;;;;43.95;27.83;;;;;;;4.10;51.39;102130.03;5173811;28;20430;-47
2022/03/04 00:46:38;;;;;;;36.90;25.25;;;;;;;3.84;51.65;102086.91;5170507;28;20455;-49
2022/03/04 00:49:11;;;;;;;39.00;25.58;;;;;;;4.03;51.86;102125.22;5170045;28;20508;-52
2022/03/04 00:51:44;;;;;;;42.22;26.05;;;;;;;4.02;51.73;102128.72;5176628;28;20473;-52
2022/03/04 00:54:17;;;;;;;35.22;26.20;;;;;;;4.00;52.04;102126.19;5182118;28;20493;-49
2022/03/04 00:56:50;;;;;;;37.85;27.95;;;;;;;3.74;52.18;102087.41;5177865;28;20411;-52
2022/03/04 00:59:23;;;;;;;38.58;27.63;;;;;;;3.93;52.04;102145.69;5170449;28;20892;-49
2022/03/04 01:01:55;;;;;;;37.22;27.02;;;;;;;3.98;52.26;102137.66;5178975;28;20821;-54
2022/03/04 01:04:32;;;;;;;38.10;26.73;;;;;;;3.85;52.02;102160.91;5178065;28;20411;-48
2022/03/04 01:07:06;;;;;;;45.40;27.20;;;;;;;3.90;52.47;102136.25;5173557;28;20419;-51
2022/03/04 01:09:39;;;;;;;40.05;27.95;;;;;;;3.94;52.32;102136.94;5176948;28;20511;-53
2022/03/04 01:12:12;;;;;;;39.67;28.08;;;;;;;3.89;52.78;102133.72;5173104;28;20432;-59
2022/03/04 01:14:44;;;;;;;35.13;26.23;;;;;;;3.85;52.60;102129.56;5172562;28;20431;-47
2022/03/04 01:17:16;;;;;;;39.72;27.98;;;;;;;3.83;52.97;102127.00;5180053;28;20482;-50
2022/03/04 01:19:49;;;;;;;36.90;26.27;;;;;;;3.82;53.07;102122.72;5173969;28;20491;-46
2022/03/04 01:22:22;;;;;;;38.00;26.27;;;;;;;3.46;53.21;102073.06;5170252;28;20431;-52
2022/03/04 01:24:55;;;;;;;41.53;28.23;;;;;;;3.68;52.75;102112.91;5176406;28;20504;-47
2022/03/04 01:27:28;;;;;;;39.38;25.90;;;;;;;3.81;53.05;102141.06;5173103;28;20465;-48
2022/03/04 01:30:01;;;;;;;38.17;28.23;;;;;;;3.65;53.00;102118.31;5174683;28;20467;-52
2022/03/04 01:32:34;;;;;;;41.25;28.08;;;;;;;3.67;53.24;102121.69;5179014;28;20422;-47
2022/03/04 01:35:12;;;;;;;40.55;27.08;;;;;;;3.64;53.38;102119.22;5177850;28;20495;-54
2022/03/04 01:37:47;;;;;;;38.93;28.10;;;;;;;3.74;53.39;102129.22;5168382;28;20556;-52
2022/03/04 01:40:22;;;;;;;39.20;28.45;;;;;;;3.73;53.11;102132.75;5171963;28;20414;-50
2022/03/04 01:42:55;;;;;;;41.58;29.30;;;;;;;3.70;53.34;102118.06;5167976;28;20540;-47
2022/03/04 01:45:29;;;;;;;39.00;26.40;;;;;;;3.70;53.56;102118.91;5174004;28;20543;-50
2022/03/04 01:48:02;;;;;;;37.70;26.92;;;;;;;3.67;53.76;102123.44;5180795;28;20476;-51
2022/03/04 01:50:37;;;;;;;39.67;26.40;;;;;;;3.59;53.68;102121.22;5171307;28;20960;-51
2022/03/04 01:53:11;;;;;;;38.92;27.58;;;;;;;3.60;53.77;102127.28;5168780;28;20418;-54
2022/03/04 01:55:51;;;;;;;40.37;28.20;;;;;;;3.59;54.02;102129.06;5177194;28;20493;-51
2022/03/04 01:58:26;;;;;;;40.42;27.40;;;;;;;3.42;53.91;102102.88;5171558;28;20411;-52
2022/03/04 02:00:59;;;;;;;38.08;27.25;;;;;;;3.55;53.86;102124.03;5176251;28;21014;-49
2022/03/04 02:03:33;;;;;;;42.13;29.25;;;;;;;3.48;54.01;102115.66;5174335;28;20913;-47
2022/03/04 02:06:08;;;;;;;41.80;28.42;;;;;;;3.49;54.28;102119.94;5173381;28;20947;-49
2022/03/04 02:08:44;;;;;;;39.33;28.25;;;;;;;3.48;54.13;102128.72;5174092;28;20804;-51
2022/03/04 02:11:16;;;;;;;43.03;27.83;;;;;;;3.46;54.17;102120.94;5168352;28;20498;-49
2022/03/04 02:13:49;;;;;;;42.13;28.67;;;;;;;3.43;54.13;102115.00;5173079;28;20500;-50
2022/03/04 02:16:26;;;;;;;41.85;28.15;;;;;;;3.42;54.04;102118.53;5172280;28;20962;-48
2022/03/04 02:18:59;;;;;;;39.45;27.42;;;;;;;3.40;54.31;102118.59;5172840;28;20780;-51
2022/03/04 02:21:33;;;;;;;39.75;26.77;;;;;;;3.40;54.41;102120.38;5174615;28;20972;-48
2022/03/04 02:24:10;;;;;;;40.38;27.45;;;;;;;3.37;54.51;102120.50;5174048;28;20419;-49
2022/03/04 02:26:45;;;;;;;39.88;26.40;;;;;;;3.34;54.48;102118.03;5176706;28;20481;-52
2022/03/04 02:29:18;;;;;;;42.25;26.52;;;;;;;3.30;54.33;102121.72;5171338;28;20431;-54
2022/03/04 02:32:06;;;;;;;38.45;26.35;;;;;;;3.24;54.67;102128.91;5170104;28;20497;-54
2022/03/04 02:34:38;;;;;;;39.45;26.00;;;;;;;3.26;54.40;102128.03;5178472;28;20518;-50
2022/03/04 02:37:11;;;;;;;38.72;26.77;;;;;;;3.23;54.81;102124.63;5172022;28;20427;-57
2022/03/04 02:39:45;;;;;;;39.30;27.10;;;;;;;3.19;54.83;102120.47;5169151;28;20838;-57
2022/03/04 02:42:19;;;;;;;42.47;27.50;;;;;;;3.19;54.73;102123.09;5166364;28;20456;-48
2022/03/04 02:44:52;;;;;;;39.13;27.48;;;;;;;3.19;54.73;102122.22;5173600;28;20423;-51
2022/03/04 02:47:24;;;;;;;37.33;24.05;;;;;;;3.11;54.81;102104.31;5166665;28;20593;-51
2022/03/04 02:49:57;;;;;;;38.27;26.60;;;;;;;3.11;54.99;102106.91;5169569;28;20432;-48
2022/03/04 02:52:29;;;;;;;33.38;24.17;;;;;;;3.13;54.71;102110.31;5169090;28;20527;-47
2022/03/04 02:55:10;;;;;;;39.67;26.88;;;;;;;3.11;54.88;102108.69;5171240;28;20429;-59
2022/03/04 02:57:45;;;;;;;40.47;26.70;;;;;;;3.06;55.08;102106.25;5174506;28;20537;-48
2022/03/04 03:00:19;;;;;;;38.42;27.42;;;;;;;3.02;55.37;102101.28;5176699;28;20434;-50
2022/03/04 03:02:54;;;;;;;38.50;25.67;;;;;;;2.92;54.89;102093.03;5174423;28;20491;-46
2022/03/04 03:05:27;;;;;;;39.00;27.77;;;;;;;2.99;55.38;102099.66;5169991;28;20487;-49
2022/03/04 03:08:00;;;;;;;40.58;27.83;;;;;;;2.94;55.24;102096.38;5175491;28;20780;-46
2022/03/04 03:10:34;;;;;;;40.20;26.80;;;;;;;2.94;55.39;102096.38;5175363;28;20431;-54
2022/03/04 03:13:08;;;;;;;41.78;27.55;;;;;;;2.96;55.20;102107.59;5176382;28;20502;-47
2022/03/04 03:15:40;;;;;;;39.15;26.02;;;;;;;2.93;55.34;102110.34;5166597;28;20900;-49
2022/03/04 03:18:13;;;;;;;41.63;27.50;;;;;;;2.92;55.36;102113.91;5169182;28;20443;-51
2022/03/04 03:20:45;;;;;;;42.92;27.65;;;;;;;2.83;55.65;102099.50;5173724;28;20451;-51
2022/03/04 03:23:18;;;;;;;40.97;26.80;;;;;;;2.89;55.27;102109.66;5171084;28;20498;-48
2022/03/04 03:25:52;;;;;;;38.60;27.42;;;;;;;2.88;55.61;102117.53;5174329;28;20415;-48
2022/03/04 03:28:29;;;;;;;39.83;26.88;;;;;;;2.81;55.28;102105.69;5169985;28;21511;-54
2022/03/04 03:31:04;;;;;;;41.92;28.10;;;;;;;2.86;55.57;102117.63;5171102;28;20761;-51
2022/03/04 03:33:43;;;;;;;38.97;27.20;;;;;;;2.78;55.84;102112.72;5178351;28;20994;-47
2022/03/04 03:36:15;;;;;;;35.70;26.33;;;;;;;2.79;55.85;102118.81;5173884;28;20429;-61
2022/03/04 03:39:27;;;;;;;43.22;27.63;;;;;;;2.61;55.95;102099.59;5168713;28;20478;-50
2022/03/04 03:42:01;;;;;;;39.75;26.63;;;;;;;2.72;56.03;102126.03;5165333;28;20935;-48
2022/03/04 03:44:36;;;;;;;40.63;26.17;;;;;;;2.68;56.43;102121.88;5172589;28;20484;-51
2022/03/04 03:47:10;;;;;;;41.95;28.38;;;;;;;2.68;56.15;102121.03;5173618;28;20448;-57
2022/03/04 03:49:42;;;;;;;41.95;28.45;;;;;;;2.67;56.37;102124.56;5171313;28;20491;-53
2022/03/04 03:52:15;;;;;;;40.85;27.35;;;;;;;2.66;56.13;102128.91;5174663;28;20413;-53
2022/03/04 03:54:50;;;;;;;40.10;27.08;;;;;;;2.64;56.31;102120.34;5174145;28;20801;-61
2022/03/04 03:57:31;;;;;;;39.95;27.40;;;;;;;2.40;56.63;102097.94;5175267;28;20535;-47
2022/03/04 04:00:06;;;;;;;37.03;27.50;;;;;;;2.62;56.44;102129.97;5174545;28;20510;-46
2022/03/04 04:02:42;;;;;;;38.30;26.05;;;;;;;2.63;56.39;102134.28;5170321;28;20532;-48
2022/03/04 04:05:15;;;;;;;43.75;26.65;;;;;;;2.63;56.50;102134.28;5160384;28;20402;-52
2022/03/04 04:07:47;;;;;;;40.92;27.83;;;;;;;2.64;56.58;102129.94;5170145;28;20422;-52
2022/03/04 04:10:20;;;;;;;39.67;27.00;;;;;;;2.59;56.63;102135.31;5172260;28;20486;-47
2022/03/04 04:12:55;;;;;;;37.88;26.17;;;;;;;2.39;56.61;102093.63;5167452;28;20436;-50
2022/03/04 04:15:30;;;;;;;41.15;25.42;;;;;;;2.53;56.65;102132.97;5167201;28;20763;-52
2022/03/04 04:18:02;;;;;;;39.33;27.70;;;;;;;2.51;57.20;102135.66;5162726;28;20778;-51
2022/03/04 04:20:35;;;;;;;38.58;25.55;;;;;;;2.11;57.20;102101.75;5168841;28;20533;-48
2022/03/04 04:23:10;;;;;;;41.00;24.95;;;;;;;2.39;57.17;102120.56;5177359;28;20419;-59
2022/03/04 04:25:45;;;;;;;35.92;24.48;;;;;;;2.48;56.94;102138.41;5172321;28;20416;-49
2022/03/04 04:28:19;;;;;;;38.08;26.75;;;;;;;2.42;57.36;102135.22;5173914;28;20780;-53
2022/03/04 04:30:51;;;;;;;38.95;26.92;;;;;;;2.52;57.11;102146.94;5176660;28;20465;-50
2022/03/04 04:33:26;;;;;;;42.22;24.77;;;;;;;2.51;57.16;102140.88;5176060;28;20498;-55
2022/03/04 04:36:01;;;;;;;35.58;25.67;;;;;;;2.49;57.42;102141.84;5178251;28;20516;-49
2022/03/04 04:38:37;;;;;;;37.50;25.80;;;;;;;2.48;57.40;102124.53;5169986;28;20855;-57
2022/03/04 04:41:09;;;;;;;37.80;24.58;;;;;;;2.51;57.42;102134.81;5170381;28;20435;-47
2022/03/04 04:43:43;;;;;;;38.55;25.73;;;;;;;2.50;57.19;102139.16;5172416;28;20425;-48
2022/03/04 04:46:15;;;;;;;42.28;24.50;;;;;;;2.41;57.33;102123.06;5177981;28;20893;-50
2022/03/04 04:48:51;;;;;;;40.20;25.33;;;;;;;2.49;57.25;102147.06;5172610;28;20413;-52
2022/03/04 04:51:24;;;;;;;39.03;26.08;;;;;;;2.46;57.66;102131.56;5172528;28;20527;-54
2022/03/04 04:53:56;;;;;;;36.00;25.15;;;;;;;2.45;57.73;102132.47;5182814;28;20417;-54
2022/03/04 04:56:32;;;;;;;37.75;26.60;;;;;;;2.45;57.44;102135.09;5173827;28;20500;-53
2022/03/04 04:59:11;;;;;;;39.20;25.52;;;;;;;2.45;57.87;102132.47;5172017;28;20433;-50
2022/03/04 05:01:46;;;;;;;37.20;26.30;;;;;;;2.44;57.76;102138.59;5177053;28;20499;-51
2022/03/04 05:04:18;;;;;;;40.92;25.67;;;;;;;2.45;57.76;102137.69;5173154;28;20790;-48
2022/03/04 05:06:53;;;;;;;41.47;25.83;;;;;;;2.45;57.68;102138.53;5177441;28;20828;-54
2022/03/04 05:09:26;;;;;;;37.58;24.88;;;;;;;2.44;57.80;102139.44;5170076;28;20810;-53
2022/03/04 05:11:58;;;;;;;38.20;25.65;;;;;;;2.38;57.58;102134.47;5171714;28;20772;-51
2022/03/04 05:14:33;;;;;;;35.05;24.60;;;;;;;2.38;57.91;102144.91;5176376;28;20556;-47
2022/03/04 05:17:06;;;;;;;40.47;26.58;;;;;;;2.35;58.01;102136.38;5176946;28;20507;-52
2022/03/04 05:19:38;;;;;;;39.17;24.90;;;;;;;2.35;57.89;102136.38;5170059;28;20516;-46
2022/03/04 05:22:11;;;;;;;38.78;24.23;;;;;;;2.35;57.84;102139.81;5183171;28;20435;-47
2022/03/04 05:24:43;;;;;;;39.53;27.38;;;;;;;2.19;57.73;102118.78;5173102;28;20506;-48
2022/03/04 05:27:16;;;;;;;43.03;28.90;;;;;;;2.35;58.06;102144.19;5176125;28;20504;-51
2022/03/04 05:29:49;;;;;;;40.37;27.57;;;;;;;2.29;57.96;102135.75;5177539;28;20574;-50
2022/03/04 05:32:24;;;;;;;35.97;25.25;;;;;;;2.29;57.97;102140.06;5173980;28;21146;-50
2022/03/04 05:34:57;;;;;;;42.45;27.15;;;;;;;2.26;58.17;102138.47;5171791;28;20851;-53
2022/03/04 05:37:29;;;;;;;38.90;25.63;;;;;;;2.26;58.13;102143.69;5171579;28;20937;-48
2022/03/04 05:40:02;;;;;;;42.58;27.45;;;;;;;2.22;58.10;102144.69;5170209;28;20448;-51
2022/03/04 05:42:36;;;;;;;40.30;27.02;;;;;;;2.21;58.22;102143.03;5175329;28;20423;-48
2022/03/04 05:45:11;;;;;;;40.60;26.58;;;;;;;2.18;58.41;102140.53;5173256;28;20431;-51
2022/03/04 05:47:44;;;;;;;43.03;26.27;;;;;;;2.18;58.16;102145.75;5169468;28;20443;-47
2022/03/04 05:50:16;;;;;;;41.40;26.67;;;;;;;2.16;58.39;102144.97;5173520;28;20492;-48
2022/03/04 05:52:49;;;;;;;41.22;27.35;;;;;;;2.09;58.54;102133.09;5173589;28;20519;-48
2022/03/04 05:55:21;;;;;;;39.03;26.07;;;;;;;2.03;58.76;102128.97;5179013;28;20427;-54
2022/03/04 05:57:54;;;;;;;42.38;26.52;;;;;;;2.03;58.74;102139.41;5170921;28;20452;-50
2022/03/04 06:00:28;;;;;;;42.80;25.15;;;;;;;2.08;58.63;102149.66;5176136;28;20407;-52
2022/03/04 06:03:01;;;;;;;39.15;26.35;;;;;;;2.05;58.60;102140.19;5170894;28;20417;-50
2022/03/04 06:05:34;;;;;;;37.72;25.15;;;;;;;2.04;58.64;102140.25;5173213;28;20451;-52
2022/03/04 06:08:06;;;;;;;38.60;25.75;;;;;;;2.06;58.69;102154.06;5171068;28;20471;-50
2022/03/04 06:10:39;;;;;;;37.55;25.70;;;;;;;1.98;59.00;102182.19;5173816;28;20417;-50
2022/03/04 06:13:12;;;;;;;39.55;26.35;;;;;;;2.03;58.68;102154.19;5174343;28;20527;-52
2022/03/04 06:15:45;;;;;;;40.10;26.47;;;;;;;2.03;58.77;102164.63;5171803;28;20408;-50
2022/03/04 06:18:21;;;;;;;38.83;24.85;;;;;;;1.80;58.95;102121.28;5173072;28;20491;-49
2022/03/04 06:20:54;;;;;;;36.55;24.50;;;;;;;1.74;58.74;102119.75;5180184;28;21033;-46
2022/03/04 06:23:26;;;;;;;38.15;24.98;;;;;;;2.01;58.94;102166.44;5177579;28;20428;-49
2022/03/04 06:25:59;;;;;;;36.80;24.58;;;;;;;1.96;59.24;102168.41;5175819;28;20420;-51
2022/03/04 06:28:32;;;;;;;35.28;25.33;;;;;;;1.73;59.21;102131.06;5182132;28;20781;-54
2022/03/04 06:31:06;;;;;;;39.58;25.15;;;;;;;2.01;59.25;102182.06;5170966;28;20631;-48
2022/03/04 06:33:39;;;;;;;36.58;24.75;;;;;;;1.98;59.18;102171.75;5168315;28;20523;-50
2022/03/04 06:36:15;;;;;;;39.47;25.38;;;;;;;1.95;59.03;102169.28;5170733;28;20415;-51
2022/03/04 06:38:48;;;;;;;44.78;25.27;;;;;;;2.01;59.03;102185.53;5165940;28;21049;-50
2022/03/04 06:41:20;;;;;;;35.65;23.67;;;;;;;1.98;59.45;102179.59;5169164;28;20453;-48
2022/03/04 06:43:56;;;;;;;39.33;25.52;;;;;;;1.84;59.28;102157.53;5173584;28;20421;-49
2022/03/04 06:46:35;;;;;;;36.20;25.10;;;;;;;2.02;59.20;102184.63;5170849;28;20879;-50
2022/03/04 06:49:10;;;;;;;33.75;24.35;;;;;;;2.02;59.23;102195.03;5171556;28;20516;-46
2022/03/04 06:51:48;;;;;;;33.93;24.27;;;;;;;2.05;59.16;102191.47;5177535;28;20506;-49
2022/03/04 06:54:23;;;;;;;40.17;27.38;;;;;;;2.09;59.21;102195.66;5171740;28;20892;-46
2022/03/04 06:56:56;;;;;;;36.10;25.08;;;;;;;1.99;59.25;102174.31;5170223;28;20868;-47
2022/03/04 06:59:28;;;;;;;36.80;23.80;;;;;;;2.04;59.25;102177.59;5169746;28;20875;-52
2022/03/04 07:02:06;;;;;;;34.85;24.55;;;;;;;2.16;59.40;102197.09;5167683;28;20578;-50
2022/03/04 07:04:38;;;;;;;32.77;23.70;;;;;;;2.12;59.25;102179.88;5169197;28;20527;-49
2022/03/04 07:07:11;;;;;;;35.60;25.92;;;;;;;2.14;59.55;102185.91;5167796;28;20440;-47
2022/03/04 07:09:47;;;;;;;36.83;24.85;;;;;;;2.25;59.51;102198.47;5181531;28;22687;-48
2022/03/04 07:12:19;;;;;;;38.25;23.70;;;;;;;2.28;59.46;102196.59;5169670;28;20441;-48
2022/03/04 07:14:51;;;;;;;36.80;25.13;;;;;;;2.35;59.29;102199.78;5172765;28;24321;-52
2022/03/04 07:17:28;;;;;;;35.80;25.40;;;;;;;2.37;59.57;102194.53;5176590;28;20508;-51
2022/03/04 07:20:04;;;;;;;36.88;25.15;;;;;;;2.45;59.33;102202.88;5161802;28;20907;-50
2022/03/04 07:22:37;;;;;;;33.83;23.95;;;;;;;1.94;59.61;102129.34;5167257;28;20907;-51
2022/03/04 07:25:15;;;;;;;36.67;23.80;;;;;;;2.51;59.67;102211.28;5174327;28;20891;-53
2022/03/04 07:27:48;;;;;;;33.15;23.58;;;;;;;2.53;59.57;102209.44;5170302;28;20440;-49
2022/03/04 07:30:20;;;;;;;37.33;25.00;;;;;;;2.60;59.59;102209.19;5170703;28;20779;-47
2022/03/04 07:32:54;;;;;;;33.63;25.27;;;;;;;2.76;59.55;102213.72;5176152;28;20510;-50
2022/03/04 07:35:27;;;;;;;34.43;21.57;;;;;;;3.88;58.91;102205.19;5171116;28;20584;-50
2022/03/04 07:38:00;;;;;;;27.90;18.65;;;;;;;5.64;57.11;102197.94;5166013;28;20510;-54
2022/03/04 07:40:32;;;;;;;26.35;18.38;;;;;;;7.25;56.01;102215.69;5167339;28;20625;-47
2022/03/04 07:43:05;;;;;;;25.58;17.52;;;;;;;8.51;55.02;102200.56;5168447;28;20510;-47
2022/03/04 07:45:39;;;;;;;26.00;16.02;;;;;;;9.61;54.10;102205.25;5171358;28;20548;-46
2022/03/04 07:48:12;;;;;;;22.13;15.95;;;;;;;10.39;53.64;102199.53;5173595;28;20466;-48
2022/03/04 07:50:45;;;;;;;20.30;15.10;;;;;;;11.19;52.98;102208.44;5168014;28;20411;-46
2022/03/04 07:53:18;;;;;;;20.55;14.20;;;;;;;11.84;52.28;102209.44;5167306;28;20488;-45
2022/03/04 07:55:50;;;;;;;24.33;14.75;;;;;;;12.27;51.97;102209.44;5176976;28;20426;-54
2022/03/04 07:58:22;;;;;;;21.87;14.83;;;;;;;12.84;51.36;102208.16;5172411;28;20497;-50
2022/03/04 08:00:55;;;;;;;21.33;14.63;;;;;;;13.47;50.48;102207.19;5170234;28;20519;-47
2022/03/04 08:03:34;;;;;;;24.90;14.30;;;;;;;14.04;49.71;102205.63;5174737;28;20527;-49
2022/03/04 08:06:06;;;;;;;20.80;15.18;;;;;;;14.51;48.92;102219.06;5162150;28;20454;-55
2022/03/04 08:08:39;;;;;;;21.90;14.00;;;;;;;14.80;48.33;102210.19;5171026;28;20864;-51
2022/03/04 08:11:14;;;;;;;21.73;14.43;;;;;;;15.21;47.90;102211.59;5172619;28;20494;-49
2022/03/04 08:13:47;;;;;;;23.70;14.43;;;;;;;15.62;47.06;102218.25;5176033;28;20453;-48
2022/03/04 08:16:19;;;;;;;18.92;13.73;;;;;;;15.74;46.62;102221.59;5173273;28;20734;-46
2022/03/04 08:18:53;;;;;;;22.85;15.25;;;;;;;15.57;46.52;102223.19;5171369;28;21175;-47
2022/03/04 08:21:26;;;;;;;20.60;14.73;;;;;;;15.88;46.07;102226.38;5175348;28;20464;-48
2022/03/04 08:23:58;;;;;;;22.67;13.80;;;;;;;15.86;45.59;102228.38;5169571;28;20499;-54
2022/03/04 08:26:31;;;;;;;21.08;14.52;;;;;;;15.58;45.45;102232.03;5168259;28;20407;-51
2022/03/04 08:29:03;;;;;;;22.55;15.05;;;;;;;15.73;45.11;102237.69;5173117;28;20478;-50
2022/03/04 08:31:36;;;;;;;23.60;15.35;;;;;;;15.81;44.56;102235.97;5171277;28;20431;-52
2022/03/04 08:34:10;;;;;;;25.13;15.23;;;;;;;15.48;44.49;102218.75;5180611;28;20491;-55
2022/03/04 08:36:42;;;;;;;22.17;14.85;;;;;;;15.08;44.58;102217.25;5185168;28;20417;-56
2022/03/04 08:39:15;;;;;;;22.75;15.63;;;;;;;14.81;44.70;102225.19;5182639;28;20967;-49
2022/03/04 08:41:47;;;;;;;23.90;15.48;;;;;;;14.95;44.21;102243.31;5171151;28;20415;-48
2022/03/04 08:44:20;;;;;;;20.25;14.80;;;;;;;15.27;43.63;102236.78;5178183;28;20437;-52
2022/03/04 08:46:52;;;;;;;20.65;15.02;;;;;;;15.35;43.22;102228.91;5170401;28;20422;-50
2022/03/04 08:49:26;;;;;;;20.27;15.00;;;;;;;15.39;42.84;102249.78;5167168;28;20435;-52
2022/03/04 08:51:59;;;;;;;20.75;15.68;;;;;;;15.20;42.86;102245.34;5165709;28;20488;-50
2022/03/04 08:54:31;;;;;;;20.13;14.77;;;;;;;15.12;42.58;102253.22;5168375;28;20502;-48
2022/03/04 08:57:07;;;;;;;20.63;15.52;;;;;;;15.13;42.39;102246.91;5175083;28;20511;-53
2022/03/04 08:59:42;;;;;;;19.45;14.85;;;;;;;15.18;42.00;102247.31;5173856;28;20420;-51
2022/03/04 09:02:15;;;;;;;25.20;16.48;;;;;;;15.31;41.96;102259.47;5172982;28;20784;-51
2022/03/04 09:04:48;;;;;;;21.67;15.70;;;;;;;15.53;41.42;102242.28;5169847;28;20464;-49
2022/03/04 09:07:21;;;;;;;21.13;15.40;;;;;;;15.55;41.32;102240.31;5173292;28;20529;-48
2022/03/04 09:09:53;;;;;;;23.45;16.38;;;;;;;15.62;41.02;102242.22;5175424;28;20518;-51
2022/03/04 09:12:26;;;;;;;21.20;15.80;;;;;;;15.61;40.79;102248.53;5174071;28;20482;-51
2022/03/04 09:15:01;;;;;;;21.73;15.82;;;;;;;15.50;40.76;102242.56;5175523;28;20422;-50
2022/03/04 09:17:34;;;;;;;25.58;15.48;;;;;;;15.52;40.58;102246.75;5179646;28;20857;-53
2022/03/04 09:20:09;;;;;;;23.67;15.60;;;;;;;15.07;40.67;102201.44;5177785;28;20423;-51
2022/03/04 09:22:42;;;;;;;22.65;15.73;;;;;;;15.19;40.75;102246.34;5176843;28;20432;-53
2022/03/04 09:25:17;;;;;;;23.10;16.02;;;;;;;14.97;40.99;102246.69;5172261;28;22185;-53
2022/03/04 09:27:50;;;;;;;22.48;15.43;;;;;;;14.58;41.52;102252.06;5168000;28;20694;-50
2022/03/04 09:30:25;;;;;;;21.98;15.98;;;;;;;14.12;41.96;102219.06;5166691;28;20994;-54
2022/03/04 09:33:01;;;;;;;20.85;14.70;;;;;;;13.94;42.47;102263.22;5172532;28;20415;-50
2022/03/04 09:35:35;;;;;;;22.83;16.10;;;;;;;13.46;42.95;102259.44;5168151;28;20430;-49
2022/03/04 09:38:07;;;;;;;22.95;15.65;;;;;;;13.08;43.57;102263.56;5177446;28;20414;-52
2022/03/04 09:40:40;;;;;;;22.23;15.30;;;;;;;12.57;44.16;102250.22;5168003;28;20481;-47
2022/03/04 09:43:12;;;;;;;26.08;16.98;;;;;;;12.03;44.52;102208.81;5173533;28;20838;-50
2022/03/04 09:45:47;;;;;;;23.55;16.27;;;;;;;12.06;44.79;102256.22;5179585;28;20493;-50
2022/03/04 09:48:19;;;;;;;23.20;16.58;;;;;;;11.80;45.27;102261.78;5185911;28;20486;-52
2022/03/04 09:50:53;;;;;;;22.25;16.52;;;;;;;11.37;45.44;102257.25;5175791;28;20509;-48
2022/03/04 09:53:27;;;;;;;23.95;15.55;;;;;;;10.96;45.65;102255.16;5170802;28;20776;-52
2022/03/04 09:56:02;;;;;;;26.27;16.83;;;;;;;10.40;46.20;102226.78;5164253;28;20526;-50
2022/03/04 09:58:37;;;;;;;24.95;18.05;;;;;;;10.16;46.08;102242.63;5167749;28;20424;-48
2022/03/04 10:01:11;;;;;;;24.88;16.88;;;;;;;9.93;46.31;102239.00;5168951;28;20417;-54
2022/03/04 10:03:46;;;;;;;28.15;18.17;;;;;;;9.67;46.13;102233.81;5165998;28;20435;-49
2022/03/04 10:06:21;;;;;;;23.40;17.55;;;;;;;9.65;46.01;102243.63;5171695;28;20940;-56
2022/03/04 10:08:55;;;;;;;28.10;19.33;;;;;;;9.59;45.96;102241.44;5176837;28;20524;-52
2022/03/04 10:11:30;;;;;;;25.88;17.80;;;;;;;9.53;45.96;102231.31;5172792;28;21140;-49
2022/03/04 10:14:08;;;;;;;26.45;18.48;;;;;;;9.50;45.89;102221.00;5170547;28;20433;-51
2022/03/04 10:16:43;;;;;;;29.42;17.92;;;;;;;9.62;45.60;102225.38;5162896;28;20439;-52
2022/03/04 10:19:18;;;;;;;24.23;17.58;;;;;;;9.52;45.45;102192.72;5172813;28;20953;-48
2022/03/04 10:21:56;;;;;;;25.42;17.73;;;;;;;9.65;45.39;102230.44;5171528;28;20419;-50
2022/03/04 10:24:31;;;;;;;26.58;17.17;;;;;;;9.56;45.36;102232.91;5170519;28;20409;-49
2022/03/04 10:27:09;;;;;;;27.63;18.35;;;;;;;9.35;45.38;102232.63;5174699;28;20513;-51
2022/03/04 10:29:45;;;;;;;26.48;18.58;;;;;;;9.30;45.59;102232.94;5171122;28;20418;-51
2022/03/04 10:32:20;;;;;;;25.58;18.30;;;;;;;9.23;45.31;102219.34;5175011;28;20922;-54
2022/03/04 10:34:55;;;;;;;28.67;19.20;;;;;;;9.21;45.23;102221.25;5170349;28;20422;-52
2022/03/04 10:37:43;;;;;;;27.95;18.35;;;;;;;9.32;45.11;102235.47;5160140;28;20420;-50
2022/03/04 10:40:18;;;;;;;28.70;18.13;;;;;;;9.33;44.98;102237.16;5164076;28;20895;-50
2022/03/04 10:42:53;;;;;;;28.45;18.13;;;;;;;9.08;45.05;102194.06;5165408;28;20489;-53
2022/03/04 10:45:27;;;;;;;29.90;20.38;;;;;;;9.34;44.86;102228.31;5162849;28;20415;-56
2022/03/04 10:48:02;;;;;;;28.75;17.60;;;;;;;9.33;44.88;102218.72;5167925;28;20475;-47
2022/03/04 10:50:38;;;;;;;24.40;17.83;;;;;;;9.33;44.87;102222.19;5173539;28;20440;-60
2022/03/04 10:53:19;;;;;;;24.25;16.92;;;;;;;9.26;44.58;102217.44;5166994;28;20431;-51
2022/03/04 10:55:54;;;;;;;26.92;18.60;;;;;;;9.28;44.90;102231.38;5166902;28;20454;-51
2022/03/04 10:58:29;;;;;;;27.13;18.15;;;;;;;9.26;44.87;102222.72;5168782;28;20414;-57
2022/03/04 11:01:05;;;;;;;26.88;18.63;;;;;;;9.32;44.87;102223.16;5163199;28;20841;-53
2022/03/04 11:03:40;;;;;;;27.58;18.73;;;;;;;9.36;44.88;102218.50;5167323;28;20446;-54
2022/03/04 11:06:14;;;;;;;25.80;18.65;;;;;;;9.44;44.64;102239.88;5170861;28;20556;-52
2022/03/04 11:08:48;;;;;;;23.40;16.90;;;;;;;9.42;44.58;102228.63;5166652;28;20511;-51
2022/03/04 11:11:21;;;;;;;25.85;17.58;;;;;;;9.34;44.89;102238.84;5174862;28;20439;-53
2022/03/04 11:13:57;;;;;;;27.77;18.98;;;;;;;9.28;44.66;102220.81;5177074;28;20415;-56
2022/03/04 11:16:29;;;;;;;26.10;17.65;;;;;;;9.35;44.85;102220.31;5163045;28;20451;-48
2022/03/04 11:19:02;;;;;;;29.10;18.85;;;;;;;9.49;44.65;102221.13;5171676;28;20518;-49
2022/03/04 11:21:34;;;;;;;29.97;19.07;;;;;;;9.66;44.40;102211.06;5176071;28;20586;-56
2022/03/04 11:24:08;;;;;;;29.15;18.63;;;;;;;9.86;44.27;102214.88;5171641;28;20881;-50
2022/03/04 11:26:45;;;;;;;29.52;18.88;;;;;;;10.02;44.13;102222.50;5174450;28;20454;-55
2022/03/04 11:29:36;;;;;;;33.83;19.63;;;;;;;10.03;44.25;102208.34;5178399;28;20419;-47
2022/03/04 11:32:09;;;;;;;27.88;18.40;;;;;;;10.07;44.11;102209.84;5169692;28;20483;-53
2022/03/04 11:34:46;;;;;;;28.10;17.23;;;;;;;10.07;44.14;102215.09;5171474;28;20486;-53
2022/03/04 11:37:20;;;;;;;27.42;20.40;;;;;;;9.96;44.18;102204.47;5170256;28;20548;-58
2022/03/04 11:40:33;;;;;;;29.75;19.05;;;;;;;9.98;44.15;102199.13;5169759;28;20479;-53
2022/03/04 11:43:06;;;;;;;28.88;18.45;;;;;;;9.98;44.41;102209.66;5163544;28;20423;-47
2022/03/04 11:45:39;;;;;;;26.63;18.10;;;;;;;9.99;44.21;102204.25;5169845;28;20440;-54